Time;durP1;ratioP1;P1;durP2;ratioP2;P2;SDS_P1;SDS_P2;PMS_P1;PMS_P2;Temp;Humidity;BMP_temperature;BMP_pressure;BME280_temperature;BME280_humidity;BME280_pressure;Samples;Min_cycle;Max_cycle;Signal;HPM_P1;HPM_P2
2021/07/29 00:00:52;;;;;;;7.20;5.25;;;24.30;99.90;;;;;;5043194;28;20045;-73
2021/07/29 00:03:18;;;;;;;6.90;4.25;;;24.30;99.90;;;;;;5047265;28;20391;-72
2021/07/29 00:05:46;;;;;;;6.00;4.95;;;24.30;99.90;;;;;;5019937;28;20404;-72
2021/07/29 00:08:12;;;;;;;5.70;4.88;;;24.30;99.90;;;;;;5040880;28;20120;-72
2021/07/29 00:10:38;;;;;;;7.50;5.35;;;24.20;99.90;;;;;;5012458;28;20155;-73
2021/07/29 00:13:04;;;;;;;6.85;5.90;;;24.20;99.90;;;;;;5041635;28;20072;-73
2021/07/29 00:15:30;;;;;;;5.70;5.10;;;24.20;99.90;;;;;;5041987;28;20033;-73
2021/07/29 00:20:25;;;;;;;6.18;4.80;;;24.20;99.90;;;;;;5043850;28;20037;-72
2021/07/29 00:22:53;;;;;;;5.72;5.22;;;24.10;99.90;;;;;;5033085;28;20588;-72
2021/07/29 00:25:22;;;;;;;5.90;4.80;;;24.20;99.90;;;;;;5032858;28;20048;-73
2021/07/29 00:27:49;;;;;;;5.82;5.25;;;24.10;99.90;;;;;;5041082;28;20474;-72
2021/07/29 00:30:16;;;;;;;6.50;5.13;;;24.20;99.90;;;;;;5029094;28;20033;-72
2021/07/29 00:32:43;;;;;;;5.63;4.80;;;24.10;99.90;;;;;;5031485;28;20096;-72
2021/07/29 00:35:14;;;;;;;5.47;4.93;;;24.10;99.90;;;;;;5024634;28;20029;-73
2021/07/29 00:37:40;;;;;;;5.75;5.07;;;24.10;99.90;;;;;;5028653;28;20390;-73
2021/07/29 00:40:07;;;;;;;7.45;5.40;;;24.10;99.90;;;;;;5033898;28;20041;-72
2021/07/29 00:42:33;;;;;;;5.75;4.82;;;24.10;99.90;;;;;;5022652;28;20396;-73
2021/07/29 00:44:58;;;;;;;6.60;4.97;;;24.10;99.90;;;;;;5028544;28;20041;-73
2021/07/29 00:47:24;;;;;;;7.93;4.82;;;24.10;99.90;;;;;;5027339;28;20038;-73
2021/07/29 00:49:50;;;;;;;6.28;5.00;;;24.00;99.90;;;;;;5053582;28;20033;-72
2021/07/29 00:52:19;;;;;;;9.65;5.28;;;24.00;99.90;;;;;;5031364;28;20049;-73
2021/07/29 00:54:46;;;;;;;5.93;5.32;;;24.00;99.90;;;;;;5045411;28;20034;-73
2021/07/29 00:57:12;;;;;;;5.30;4.72;;;24.00;99.90;;;;;;5040374;28;20044;-71
2021/07/29 00:59:39;;;;;;;5.60;5.10;;;24.00;99.90;;;;;;5065070;28;20499;-73
2021/07/29 01:02:04;;;;;;;5.60;5.00;;;24.00;99.90;;;;;;5038211;28;20037;-73
2021/07/29 01:04:30;;;;;;;6.25;5.07;;;23.90;99.90;;;;;;5036452;28;20068;-73
2021/07/29 01:06:56;;;;;;;7.53;5.40;;;24.00;99.90;;;;;;5029922;28;20030;-73
2021/07/29 01:09:22;;;;;;;6.47;5.05;;;24.00;99.90;;;;;;5031302;28;20029;-73
2021/07/29 01:11:48;;;;;;;6.30;5.30;;;24.00;99.90;;;;;;5028179;28;20111;-73
2021/07/29 01:14:14;;;;;;;5.63;5.10;;;24.00;99.90;;;;;;5040580;28;20041;-72
2021/07/29 01:16:39;;;;;;;7.10;4.95;;;24.00;99.90;;;;;;5024652;28;20068;-73
2021/07/29 01:19:06;;;;;;;5.75;5.15;;;23.90;99.90;;;;;;5038694;28;20064;-73
2021/07/29 01:21:33;;;;;;;5.07;4.57;;;23.90;99.90;;;;;;5033327;28;20038;-73
2021/07/29 01:23:58;;;;;;;7.45;5.47;;;23.90;99.90;;;;;;5037402;28;20032;-73
2021/07/29 01:26:27;;;;;;;6.18;5.18;;;23.90;99.90;;;;;;5048973;28;20049;-72
2021/07/29 01:28:53;;;;;;;6.40;5.50;;;23.90;99.90;;;;;;5043778;28;20509;-73
2021/07/29 01:31:19;;;;;;;6.18;5.30;;;23.90;99.90;;;;;;5037759;28;20048;-73
2021/07/29 01:33:44;;;;;;;5.65;5.15;;;23.90;99.90;;;;;;5023375;28;20033;-72
2021/07/29 01:36:10;;;;;;;5.80;5.03;;;23.80;99.90;;;;;;5030873;28;20037;-73
2021/07/29 01:38:36;;;;;;;6.15;5.22;;;23.80;99.90;;;;;;5025312;28;20033;-73
2021/07/29 01:41:02;;;;;;;6.72;5.32;;;23.80;99.90;;;;;;5033914;28;20060;-73
2021/07/29 01:43:28;;;;;;;5.28;4.78;;;23.80;99.90;;;;;;5050154;28;20072;-73
2021/07/29 01:45:54;;;;;;;7.05;5.40;;;23.80;99.90;;;;;;5048576;28;20039;-72
2021/07/29 01:48:20;;;;;;;6.22;5.20;;;23.80;99.90;;;;;;5044433;28;20040;-73
2021/07/29 01:50:45;;;;;;;5.93;5.18;;;23.80;99.90;;;;;;5036370;28;20032;-72
2021/07/29 01:53:11;;;;;;;7.03;5.25;;;23.80;99.90;;;;;;5046945;28;20045;-65
2021/07/29 01:55:44;;;;;;;5.40;4.93;;;23.80;99.90;;;;;;5029735;28;20532;-73
2021/07/29 01:58:11;;;;;;;6.00;5.40;;;23.70;99.90;;;;;;5030221;28;20514;-73
2021/07/29 02:00:40;;;;;;;6.75;5.53;;;23.70;99.90;;;;;;5024784;28;20113;-73
2021/07/29 02:03:06;;;;;;;5.15;4.68;;;23.80;99.90;;;;;;5033861;28;20041;-73
2021/07/29 02:05:32;;;;;;;7.68;5.43;;;23.70;99.90;;;;;;5039895;28;20052;-73
2021/07/29 02:07:58;;;;;;;5.05;4.55;;;23.70;99.90;;;;;;5038737;28;20041;-72
2021/07/29 02:10:24;;;;;;;6.03;4.80;;;23.70;99.90;;;;;;5033599;28;20036;-72
2021/07/29 02:12:50;;;;;;;6.55;4.95;;;23.70;99.90;;;;;;5038143;28;20045;-72
2021/07/29 02:15:16;;;;;;;9.80;6.20;;;23.70;99.90;;;;;;5024115;28;20057;-72
2021/07/29 02:17:41;;;;;;;8.05;5.20;;;23.70;99.90;;;;;;5029864;28;20127;-72
2021/07/29 02:20:08;;;;;;;6.78;4.97;;;23.70;99.90;;;;;;5038920;28;20051;-72
2021/07/29 02:22:34;;;;;;;7.10;5.40;;;23.70;99.90;;;;;;5046954;28;20054;-73
2021/07/29 02:24:59;;;;;;;8.80;5.82;;;23.70;99.90;;;;;;5045873;28;20053;-72
2021/07/29 02:27:25;;;;;;;6.45;4.90;;;23.70;99.90;;;;;;5049784;28;20063;-73
2021/07/29 02:29:51;;;;;;;5.57;5.07;;;23.70;99.90;;;;;;5041409;28;20040;-72
2021/07/29 02:32:17;;;;;;;6.05;5.50;;;23.60;99.90;;;;;;5032418;28;20037;-72
2021/07/29 02:34:43;;;;;;;7.38;4.97;;;23.60;99.90;;;;;;5039291;28;20584;-71
2021/07/29 02:37:09;;;;;;;5.95;5.45;;;23.60;99.90;;;;;;5048139;28;20048;-72
2021/07/29 02:39:36;;;;;;;7.07;5.53;;;23.60;99.90;;;;;;5045554;28;20120;-72
2021/07/29 02:42:02;;;;;;;7.80;5.22;;;23.60;99.90;;;;;;5043501;28;20392;-72
2021/07/29 02:44:28;;;;;;;7.00;4.80;;;23.60;99.90;;;;;;5061052;28;20490;-72
2021/07/29 02:46:53;;;;;;;6.40;5.10;;;23.50;99.90;;;;;;5043002;28;20055;-72
2021/07/29 02:49:28;;;;;;;7.00;5.72;;;23.50;99.90;;;;;;5061521;28;20090;-72
2021/07/29 02:51:53;;;;;;;6.13;5.07;;;23.60;99.90;;;;;;5044999;28;20128;-72
2021/07/29 02:54:19;;;;;;;5.45;4.93;;;23.50;99.90;;;;;;5046476;28;20462;-72
2021/07/29 02:56:45;;;;;;;5.82;5.22;;;23.50;99.90;;;;;;5038080;28;20558;-70
2021/07/29 02:59:32;;;;;;;6.18;5.57;;;23.50;99.90;;;;;;5028596;28;20033;-72
2021/07/29 03:01:57;;;;;;;6.93;5.75;;;23.50;99.90;;;;;;5004735;28;20040;-71
2021/07/29 03:04:24;;;;;;;8.10;5.75;;;23.50;99.90;;;;;;5031406;28;20033;-71
2021/07/29 03:06:50;;;;;;;6.15;4.75;;;23.50;99.90;;;;;;5036177;28;20044;-72
2021/07/29 03:09:16;;;;;;;7.10;5.18;;;23.50;99.90;;;;;;5040136;28;20052;-72
2021/07/29 03:11:41;;;;;;;6.93;5.38;;;23.50;99.90;;;;;;5030750;28;20053;-73
2021/07/29 03:15:00;;;;;;;7.47;5.13;;;23.50;99.90;;;;;;5038480;28;20495;-73
2021/07/29 03:17:25;;;;;;;6.95;5.18;;;23.50;99.90;;;;;;4954898;28;20069;-72
2021/07/29 03:19:51;;;;;;;5.95;5.35;;;23.50;99.90;;;;;;5031166;28;20068;-73
2021/07/29 03:22:16;;;;;;;6.10;4.85;;;23.60;99.90;;;;;;5034906;28;20118;-72
2021/07/29 03:24:42;;;;;;;7.45;5.35;;;23.60;99.90;;;;;;5034117;28;20040;-72
2021/07/29 03:27:07;;;;;;;8.85;5.20;;;23.50;99.90;;;;;;5030650;28;20037;-73
2021/07/29 03:29:33;;;;;;;6.90;5.32;;;23.50;99.90;;;;;;5046841;28;20037;-72
2021/07/29 03:31:58;;;;;;;7.10;5.00;;;23.60;99.90;;;;;;5052747;28;20414;-73
2021/07/29 03:34:24;;;;;;;7.15;5.60;;;23.60;99.90;;;;;;5042220;28;20045;-73
2021/07/29 03:36:49;;;;;;;8.07;5.97;;;23.60;99.90;;;;;;5049752;28;20088;-73
2021/07/29 03:39:15;;;;;;;6.82;5.13;;;23.60;99.90;;;;;;5028410;28;20044;-72
2021/07/29 03:41:41;;;;;;;7.00;5.50;;;23.60;99.90;;;;;;5034050;28;20403;-73
2021/07/29 03:44:07;;;;;;;7.68;5.60;;;23.60;99.90;;;;;;5034910;28;20593;-71
2021/07/29 03:46:32;;;;;;;7.07;5.65;;;23.60;99.90;;;;;;5054517;28;21403;-71
2021/07/29 03:48:58;;;;;;;6.07;5.53;;;23.70;99.90;;;;;;5029079;28;20153;-72
2021/07/29 03:51:25;;;;;;;6.32;5.25;;;23.60;99.90;;;;;;5046883;28;20067;-71
2021/07/29 03:53:51;;;;;;;6.18;5.68;;;23.70;99.90;;;;;;5027943;28;20137;-72
2021/07/29 03:56:17;;;;;;;9.10;5.78;;;23.70;99.90;;;;;;5030059;28;20038;-71
2021/07/29 03:58:43;;;;;;;6.07;5.45;;;23.60;99.90;;;;;;5032657;28;20095;-60
2021/07/29 04:01:10;;;;;;;5.95;5.38;;;23.70;99.90;;;;;;5032925;28;20038;-72
2021/07/29 04:03:36;;;;;;;7.05;5.32;;;23.70;99.90;;;;;;5047526;28;20057;-72
2021/07/29 04:06:02;;;;;;;6.35;5.30;;;23.70;99.90;;;;;;5045484;28;20485;-72
2021/07/29 04:08:28;;;;;;;7.60;5.45;;;23.60;99.90;;;;;;5043580;28;20045;-73
2021/07/29 04:10:57;;;;;;;8.07;5.63;;;23.60;99.90;;;;;;5040160;28;20509;-72
2021/07/29 04:13:22;;;;;;;7.22;5.40;;;23.70;99.90;;;;;;5049765;28;20040;-71
2021/07/29 04:15:57;;;;;;;7.30;5.32;;;23.70;99.90;;;;;;5038325;28;20037;-73
2021/07/29 04:18:22;;;;;;;7.63;5.57;;;23.60;99.90;;;;;;5041706;28;20041;-72
2021/07/29 04:20:48;;;;;;;10.35;6.20;;;23.60;99.90;;;;;;5035446;28;20175;-72
2021/07/29 04:23:13;;;;;;;6.30;5.70;;;23.70;99.90;;;;;;5026795;28;20041;-72
2021/07/29 04:25:39;;;;;;;7.55;5.78;;;23.60;99.90;;;;;;5027169;28;20045;-73
2021/07/29 04:28:04;;;;;;;7.70;5.55;;;23.70;99.90;;;;;;5044489;28;20112;-73
2021/07/29 04:30:30;;;;;;;10.70;5.88;;;23.70;99.90;;;;;;5058490;28;20494;-72
2021/07/29 04:32:55;;;;;;;6.50;5.20;;;23.70;99.90;;;;;;5051087;28;20068;-73
2021/07/29 04:35:21;;;;;;;6.50;5.55;;;23.70;99.90;;;;;;5047807;28;20037;-73
2021/07/29 04:37:47;;;;;;;9.07;5.15;;;23.70;99.90;;;;;;5032332;28;20040;-73
2021/07/29 04:40:12;;;;;;;6.72;5.15;;;23.80;99.90;;;;;;5031655;28;20475;-74
2021/07/29 04:42:38;;;;;;;6.60;5.03;;;23.70;99.90;;;;;;5042064;28;20511;-73
2021/07/29 04:45:04;;;;;;;5.75;5.18;;;23.80;99.90;;;;;;5034597;28;20041;-73
2021/07/29 04:47:31;;;;;;;5.68;5.15;;;23.80;99.90;;;;;;5040564;28;20045;-73
2021/07/29 04:49:56;;;;;;;7.07;5.50;;;23.70;99.90;;;;;;5039751;28;20041;-73
2021/07/29 04:52:22;;;;;;;5.57;5.05;;;23.80;99.90;;;;;;5036536;28;20060;-72
2021/07/29 04:54:48;;;;;;;7.28;5.43;;;23.80;99.90;;;;;;5040510;28;20044;-72
2021/07/29 04:57:13;;;;;;;6.93;5.10;;;23.70;99.90;;;;;;5034147;28;20382;-67
2021/07/29 04:59:41;;;;;;;6.25;5.18;;;23.70;99.90;;;;;;5050548;28;20128;-73
2021/07/29 05:02:07;;;;;;;5.85;5.13;;;23.70;99.90;;;;;;5044639;28;20124;-73
2021/07/29 05:04:33;;;;;;;6.05;5.45;;;23.70;99.90;;;;;;5047837;28;20491;-73
2021/07/29 05:06:59;;;;;;;7.60;4.85;;;23.80;99.90;;;;;;5044875;28;20407;-73
2021/07/29 05:09:24;;;;;;;6.28;5.32;;;23.80;99.90;;;;;;5036827;28;20033;-73
2021/07/29 05:11:50;;;;;;;9.40;5.93;;;23.80;99.90;;;;;;5032082;28;20521;-72
2021/07/29 05:14:15;;;;;;;6.70;5.53;;;23.90;99.90;;;;;;5033679;28;20045;-72
2021/07/29 05:16:41;;;;;;;5.95;4.43;;;24.00;99.90;;;;;;5027105;28;20053;-73
2021/07/29 05:19:06;;;;;;;6.13;5.53;;;24.00;99.90;;;;;;5012395;28;20383;-73
2021/07/29 05:21:32;;;;;;;7.20;5.20;;;24.00;99.90;;;;;;5031654;28;20042;-74
2021/07/29 05:23:58;;;;;;;6.57;5.97;;;24.10;99.90;;;;;;5029568;28;20033;-73
2021/07/29 05:26:23;;;;;;;5.88;5.22;;;24.10;99.90;;;;;;5044761;28;20091;-72
2021/07/29 05:28:49;;;;;;;8.10;4.78;;;24.10;99.90;;;;;;5025657;28;20387;-72
2021/07/29 05:31:15;;;;;;;6.57;5.97;;;24.10;99.90;;;;;;5036254;28;20041;-70
2021/07/29 05:33:40;;;;;;;7.05;5.65;;;24.20;99.90;;;;;;5032138;28;20095;-72
2021/07/29 05:36:06;;;;;;;6.18;5.32;;;24.20;99.90;;;;;;5036102;28;20037;-72
2021/07/29 05:38:33;;;;;;;8.68;6.75;;;24.20;99.90;;;;;;5035310;28;20063;-73
2021/07/29 05:41:06;;;;;;;6.10;5.50;;;24.40;99.90;;;;;;5030910;28;20042;-72
2021/07/29 05:43:33;;;;;;;6.18;5.60;;;24.30;99.90;;;;;;5034810;28;20431;-73
2021/07/29 05:45:58;;;;;;;8.05;5.72;;;24.40;99.90;;;;;;5045810;28;20580;-73
2021/07/29 05:48:24;;;;;;;8.30;6.38;;;24.50;99.90;;;;;;5026196;28;20041;-74
2021/07/29 05:50:50;;;;;;;7.55;5.38;;;24.40;99.90;;;;;;5053695;28;20136;-72
2021/07/29 05:53:16;;;;;;;13.10;5.30;;;24.40;99.90;;;;;;5038587;28;20038;-73
2021/07/29 05:55:42;;;;;;;7.03;5.53;;;24.50;99.90;;;;;;5026102;28;20359;-74
2021/07/29 05:58:08;;;;;;;6.88;4.93;;;24.50;99.90;;;;;;5037420;28;21952;-74
2021/07/29 06:00:33;;;;;;;6.03;5.43;;;24.60;99.90;;;;;;5042296;28;20546;-73
2021/07/29 06:02:59;;;;;;;6.60;5.35;;;24.60;99.90;;;;;;5028662;28;20042;-73
2021/07/29 06:05:25;;;;;;;7.47;5.90;;;24.80;99.90;;;;;;5025533;28;20120;-72
2021/07/29 06:07:51;;;;;;;7.13;5.85;;;24.80;99.90;;;;;;5041399;28;20207;-73
2021/07/29 06:10:16;;;;;;;8.68;5.88;;;24.80;99.90;;;;;;5041047;28;20044;-73
2021/07/29 06:12:42;;;;;;;8.93;6.38;;;24.80;99.90;;;;;;5046935;28;20041;-73
2021/07/29 06:15:08;;;;;;;12.98;7.65;;;24.80;99.90;;;;;;5046399;28;20498;-73
2021/07/29 06:17:36;;;;;;;10.13;7.18;;;24.80;99.90;;;;;;5034727;28;20065;-73
2021/07/29 06:20:05;;;;;;;9.85;6.45;;;24.80;99.90;;;;;;5030973;28;20036;-73
2021/07/29 06:22:32;;;;;;;8.13;5.93;;;24.70;99.90;;;;;;5033329;28;20056;-73
2021/07/29 06:24:59;;;;;;;9.02;6.25;;;24.70;99.90;;;;;;5031494;28;20033;-73
2021/07/29 06:27:25;;;;;;;8.90;6.20;;;24.80;99.90;;;;;;5026246;28;20123;-67
2021/07/29 06:29:50;;;;;;;9.60;6.72;;;24.70;99.90;;;;;;5036633;28;20029;-66
2021/07/29 06:32:16;;;;;;;9.13;6.43;;;24.80;99.90;;;;;;5028345;28;20041;-66
2021/07/29 06:34:41;;;;;;;8.85;7.20;;;24.80;99.90;;;;;;5027100;28;20037;-67
2021/07/29 06:37:07;;;;;;;7.30;6.70;;;24.80;99.90;;;;;;5044490;28;20032;-67
2021/07/29 06:39:32;;;;;;;10.80;7.80;;;24.80;99.90;;;;;;5036997;28;20119;-74
2021/07/29 06:41:58;;;;;;;9.10;6.93;;;24.70;99.90;;;;;;5051782;28;20063;-73
2021/07/29 06:44:24;;;;;;;9.50;8.27;;;24.70;99.90;;;;;;5045819;28;20040;-73
2021/07/29 06:46:49;;;;;;;12.05;8.45;;;24.70;99.90;;;;;;5052913;28;20117;-72
2021/07/29 06:49:15;;;;;;;12.98;8.20;;;24.80;99.90;;;;;;5028683;28;20096;-73
2021/07/29 06:51:41;;;;;;;9.43;8.13;;;24.80;99.90;;;;;;5022244;28;20534;-74
2021/07/29 06:54:06;;;;;;;13.88;8.55;;;24.90;99.90;;;;;;5042881;28;20061;-74
2021/07/29 06:56:32;;;;;;;11.68;8.05;;;24.90;99.90;;;;;;5035683;28;20044;-74
2021/07/29 06:58:58;;;;;;;12.23;8.52;;;24.90;99.90;;;;;;5044526;28;20497;-74
2021/07/29 07:01:25;;;;;;;12.60;8.55;;;24.80;99.90;;;;;;5048200;28;20029;-75
2021/07/29 07:03:51;;;;;;;10.98;8.05;;;25.00;99.90;;;;;;5037524;28;20037;-74
2021/07/29 07:06:16;;;;;;;13.23;8.48;;;25.00;99.90;;;;;;5038304;28;20032;-74
2021/07/29 07:08:42;;;;;;;12.80;10.05;;;25.00;99.90;;;;;;5037975;28;20045;-75
2021/07/29 07:11:17;;;;;;;12.98;9.85;;;25.00;99.90;;;;;;5027687;28;20049;-75
2021/07/29 07:13:44;;;;;;;11.80;9.13;;;24.90;99.90;;;;;;5021378;28;20148;-74
2021/07/29 07:16:11;;;;;;;17.63;9.95;;;25.00;99.90;;;;;;5034973;28;22571;-75
2021/07/29 07:18:37;;;;;;;11.52;9.20;;;25.10;99.90;;;;;;5047155;28;20033;-74
2021/07/29 07:21:07;;;;;;;13.20;9.07;;;25.20;99.90;;;;;;5045100;28;20425;-74
2021/07/29 07:23:34;;;;;;;13.30;9.52;;;25.20;99.90;;;;;;4999540;28;20509;-74
2021/07/29 07:26:00;;;;;;;11.82;8.68;;;25.20;99.90;;;;;;5007408;28;20038;-74
2021/07/29 07:28:25;;;;;;;11.88;9.10;;;25.20;99.90;;;;;;4994403;28;20675;-73
2021/07/29 07:30:51;;;;;;;13.35;9.70;;;25.20;99.90;;;;;;4998009;28;20030;-73
2021/07/29 07:33:17;;;;;;;10.95;7.93;;;25.20;99.90;;;;;;5008701;28;20100;-73
2021/07/29 07:35:43;;;;;;;10.48;8.70;;;25.30;99.90;;;;;;5004381;28;20092;-73
2021/07/29 07:38:08;;;;;;;12.30;9.55;;;25.40;99.90;;;;;;5006116;28;20045;-74
2021/07/29 07:40:39;;;;;;;10.38;8.35;;;25.40;99.90;;;;;;5006047;28;20076;-73
2021/07/29 07:43:05;;;;;;;11.07;9.95;;;25.50;99.90;;;;;;5003205;28;20052;-73
2021/07/29 07:45:30;;;;;;;9.15;7.68;;;25.50;99.90;;;;;;5023381;28;20400;-74
2021/07/29 07:47:56;;;;;;;9.27;8.35;;;25.50;99.90;;;;;;5010730;28;20084;-74
2021/07/29 07:50:22;;;;;;;12.48;9.07;;;25.60;99.90;;;;;;4988935;28;20054;-74
2021/07/29 07:52:47;;;;;;;13.50;8.80;;;25.50;99.90;;;;;;4998531;28;20047;-74
2021/07/29 07:55:13;;;;;;;12.15;9.40;;;25.50;99.90;;;;;;5001341;28;20073;-74
2021/07/29 07:57:38;;;;;;;11.27;8.57;;;25.60;99.90;;;;;;5001707;28;20038;-75
2021/07/29 08:00:05;;;;;;;12.07;8.52;;;25.60;99.90;;;;;;5001346;28;20069;-74
2021/07/29 08:02:49;;;;;;;9.43;7.55;;;25.70;99.90;;;;;;4990759;28;20049;-74
2021/07/29 08:05:15;;;;;;;9.35;7.25;;;25.90;99.90;;;;;;5016285;28;20056;-59
2021/07/29 08:07:40;;;;;;;10.32;7.30;;;25.90;99.90;;;;;;5007247;28;20124;-74
2021/07/29 08:10:06;;;;;;;8.52;7.45;;;25.90;99.90;;;;;;5034907;28;20040;-75
2021/07/29 08:12:32;;;;;;;9.80;6.95;;;25.90;99.90;;;;;;4997515;28;20088;-75
2021/07/29 08:14:57;;;;;;;10.90;9.00;;;26.00;99.90;;;;;;4993055;28;20034;-75
2021/07/29 08:17:23;;;;;;;10.52;7.95;;;26.00;99.90;;;;;;5000630;28;20034;-75
2021/07/29 08:19:48;;;;;;;13.52;10.10;;;26.10;99.90;;;;;;4997049;28;20562;-75
2021/07/29 08:22:14;;;;;;;9.85;8.45;;;26.10;99.90;;;;;;5014410;28;20045;-75
2021/07/29 08:24:40;;;;;;;12.75;10.27;;;26.20;99.90;;;;;;5027196;28;20048;-75
2021/07/29 08:27:05;;;;;;;13.48;9.73;;;26.10;99.90;;;;;;5058542;28;20038;-75
2021/07/29 08:29:31;;;;;;;13.23;10.25;;;26.10;99.90;;;;;;5031194;28;20034;-75
2021/07/29 08:32:00;;;;;;;10.15;8.50;;;26.20;99.90;;;;;;5025982;28;20483;-75
2021/07/29 08:34:26;;;;;;;14.93;10.60;;;26.30;99.90;;;;;;5047025;28;20129;-75
2021/07/29 08:36:52;;;;;;;14.23;9.55;;;26.40;99.90;;;;;;5018082;28;20399;-74
2021/07/29 08:39:17;;;;;;;12.55;9.30;;;26.40;99.90;;;;;;5015844;28;20045;-74
2021/07/29 08:41:43;;;;;;;12.10;9.30;;;26.40;99.90;;;;;;5035978;28;20044;-74
2021/07/29 08:44:09;;;;;;;14.68;8.98;;;26.50;99.90;;;;;;5042901;28;20041;-75
2021/07/29 08:46:36;;;;;;;13.25;9.23;;;26.50;99.90;;;;;;5049809;28;20114;-75
2021/07/29 08:49:07;;;;;;;12.20;8.68;;;26.60;99.90;;;;;;5035564;28;20029;-75
2021/07/29 08:51:33;;;;;;;9.73;8.45;;;26.70;99.90;;;;;;5022171;28;20045;-75
2021/07/29 08:54:04;;;;;;;10.98;9.10;;;26.80;99.90;;;;;;5031533;28;20041;-75
2021/07/29 08:56:30;;;;;;;12.65;8.45;;;26.70;99.90;;;;;;5024437;28;20041;-75
2021/07/29 08:58:56;;;;;;;12.10;8.95;;;26.80;99.90;;;;;;5028299;28;20546;-75
2021/07/29 09:01:41;;;;;;;12.00;8.32;;;26.80;99.90;;;;;;5026539;28;20121;-75
2021/07/29 09:04:11;;;;;;;10.80;8.52;;;27.00;99.90;;;;;;5033488;28;20037;-75
2021/07/29 09:06:59;;;;;;;16.88;8.60;;;27.00;99.90;;;;;;5060996;28;20041;-75
2021/07/29 09:09:55;;;;;;;11.50;7.93;;;27.10;99.90;;;;;;5025292;28;20041;-74
2021/07/29 09:12:24;;;;;;;13.18;8.15;;;27.10;99.90;;;;;;4984880;28;20072;-78
2021/07/29 09:14:54;;;;;;;9.73;8.73;;;27.20;99.90;;;;;;5028203;28;20076;-78
2021/07/29 09:17:57;;;;;;;9.82;8.82;;;27.20;99.90;;;;;;4999667;28;20462;-78
2021/07/29 09:20:22;;;;;;;11.35;8.15;;;27.30;99.90;;;;;;5004624;28;20487;-78
2021/07/29 09:22:50;;;;;;;14.20;8.23;;;27.30;99.90;;;;;;5028417;28;20042;-80
2021/07/29 09:25:17;;;;;;;10.45;8.10;;;27.40;99.90;;;;;;5033389;28;20032;-79
2021/07/29 09:27:52;;;;;;;9.57;8.65;;;27.50;99.90;;;;;;5034749;28;20033;-78
2021/07/29 09:30:26;;;;;;;10.23;8.05;;;27.50;99.90;;;;;;5038475;28;20043;-78
2021/07/29 09:32:52;;;;;;;12.32;7.85;;;27.60;99.90;;;;;;5035988;28;20045;-78
2021/07/29 09:35:41;;;;;;;13.00;9.20;;;27.60;99.90;;;;;;5023729;28;20459;-78
2021/07/29 09:38:30;;;;;;;10.65;8.27;;;27.60;99.90;;;;;;5018123;28;20479;-78
2021/07/29 09:41:01;;;;;;;10.48;7.82;;;27.60;99.90;;;;;;5024326;28;20097;-78
2021/07/29 09:43:32;;;;;;;14.02;9.18;;;27.80;99.90;;;;;;5015597;28;20026;-79
2021/07/29 09:46:24;;;;;;;10.85;8.88;;;27.80;99.40;;;;;;5044028;28;20474;-79
2021/07/29 09:48:50;;;;;;;9.90;8.65;;;27.70;99.50;;;;;;5026990;28;20040;-79
2021/07/29 09:51:16;;;;;;;12.98;10.18;;;27.80;99.60;;;;;;5026080;28;20729;-61
2021/07/29 09:53:44;;;;;;;13.23;8.68;;;27.80;99.40;;;;;;5029692;28;20406;-79
2021/07/29 09:56:12;;;;;;;11.02;8.10;;;27.70;99.00;;;;;;5032966;28;20166;-79
2021/07/29 09:58:42;;;;;;;8.38;7.45;;;27.70;99.90;;;;;;5042744;28;20037;-79
2021/07/29 10:01:08;;;;;;;8.85;8.05;;;27.90;99.00;;;;;;5041549;28;20044;-80
2021/07/29 10:03:43;;;;;;;10.90;7.82;;;28.00;98.90;;;;;;5045621;28;20502;-79
2021/07/29 10:06:16;;;;;;;9.68;8.15;;;28.10;97.80;;;;;;5047101;28;20045;-78
2021/07/29 10:08:49;;;;;;;12.63;9.38;;;28.00;97.90;;;;;;5038320;28;20093;-78
2021/07/29 10:11:18;;;;;;;10.40;7.68;;;28.30;97.80;;;;;;5032435;28;20042;-78
2021/07/29 10:13:44;;;;;;;13.57;8.13;;;28.30;98.00;;;;;;5037652;28;20066;-78
2021/07/29 10:16:15;;;;;;;10.82;8.80;;;28.40;97.80;;;;;;5042192;28;20120;-79
2021/07/29 10:18:50;;;;;;;12.80;9.48;;;28.30;97.30;;;;;;5035186;28;20363;-79
2021/07/29 10:21:30;;;;;;;10.48;8.32;;;28.30;97.10;;;;;;5035397;28;20451;-78
2021/07/29 10:23:58;;;;;;;9.27;8.38;;;28.40;97.50;;;;;;5018685;28;20132;-79
2021/07/29 10:26:28;;;;;;;13.32;8.45;;;28.60;97.40;;;;;;5040575;28;20038;-78
2021/07/29 10:29:22;;;;;;;9.70;8.80;;;28.80;96.80;;;;;;5023609;28;20041;-79
2021/07/29 10:31:49;;;;;;;12.02;8.93;;;28.60;96.20;;;;;;5043380;28;20037;-79
2021/07/29 10:34:41;;;;;;;12.20;8.55;;;28.80;95.60;;;;;;5042919;28;20124;-79
2021/07/29 10:37:08;;;;;;;13.57;8.73;;;28.90;96.00;;;;;;5005949;28;20041;-80
2021/07/29 10:39:56;;;;;;;11.45;7.95;;;29.20;96.10;;;;;;5035799;28;20040;-80
2021/07/29 10:42:29;;;;;;;11.27;8.30;;;29.40;93.40;;;;;;5005737;28;20438;-79
2021/07/29 10:45:35;;;;;;;18.02;9.27;;;29.50;94.30;;;;;;5054015;28;20033;-79
2021/07/29 10:48:01;;;;;;;11.57;8.82;;;29.40;93.80;;;;;;4997431;28;20041;-79
2021/07/29 10:50:26;;;;;;;10.75;8.02;;;29.30;94.90;;;;;;5042547;28;20509;-79
2021/07/29 10:52:53;;;;;;;9.40;8.40;;;29.40;94.10;;;;;;5043609;28;20094;-81
2021/07/29 10:55:21;;;;;;;10.68;8.82;;;29.60;92.80;;;;;;5036031;28;20041;-80
2021/07/29 10:57:57;;;;;;;11.13;8.82;;;29.40;93.10;;;;;;5030137;28;20060;-66
2021/07/29 11:00:22;;;;;;;10.57;7.72;;;29.60;91.90;;;;;;5056633;28;20036;-77
2021/07/29 11:02:51;;;;;;;14.90;8.20;;;29.70;92.30;;;;;;5046190;28;20371;-78
2021/07/29 11:05:22;;;;;;;8.60;7.78;;;30.00;92.10;;;;;;5027617;28;20124;-71
2021/07/29 11:07:49;;;;;;;8.88;7.95;;;30.10;91.60;;;;;;5024455;28;20125;-78
2021/07/29 11:10:16;;;;;;;11.77;8.60;;;30.20;90.30;;;;;;5026163;28;20052;-78
2021/07/29 11:12:45;;;;;;;9.35;7.38;;;30.20;89.00;;;;;;5033102;28;20045;-78
2021/07/29 11:15:12;;;;;;;8.90;7.68;;;30.60;86.50;;;;;;5032447;28;20379;-78
2021/07/29 11:17:38;;;;;;;10.43;8.82;;;30.80;84.60;;;;;;5042536;28;20036;-78
2021/07/29 11:20:05;;;;;;;10.43;8.95;;;31.60;87.20;;;;;;5031873;28;20049;-78
2021/07/29 11:22:44;;;;;;;10.57;7.32;;;31.80;84.50;;;;;;5039192;28;20053;-78
2021/07/29 11:25:10;;;;;;;10.68;8.68;;;32.00;79.00;;;;;;5047873;28;20454;-79
2021/07/29 11:27:36;;;;;;;18.70;7.88;;;32.50;79.80;;;;;;5023832;28;20174;-79
2021/07/29 11:30:03;;;;;;;11.05;8.52;;;32.50;79.20;;;;;;5041900;28;20123;-79
2021/07/29 11:32:39;;;;;;;10.38;7.93;;;32.80;76.40;;;;;;5043205;28;20517;-81
2021/07/29 11:35:10;;;;;;;8.90;7.97;;;33.10;95.30;;;;;;5031131;28;20068;-79
2021/07/29 11:37:38;;;;;;;10.05;8.07;;;33.70;72.40;;;;;;5033540;28;20119;-80
2021/07/29 11:40:06;;;;;;;24.70;9.52;;;34.10;74.20;;;;;;5023987;28;20075;-76
2021/07/29 11:42:39;;;;;;;11.65;7.80;;;33.90;85.70;;;;;;5031927;28;20035;-68
2021/07/29 11:45:24;;;;;;;14.00;8.80;;;34.30;80.50;;;;;;5045321;28;20065;-68
2021/07/29 11:47:50;;;;;;;9.65;7.93;;;34.20;78.70;;;;;;5031328;28;20094;-67
2021/07/29 11:50:16;;;;;;;11.00;8.50;;;34.00;85.70;;;;;;5026710;28;20114;-68
2021/07/29 11:52:52;;;;;;;10.00;7.85;;;34.40;84.60;;;;;;5040354;28;20046;-67
2021/07/29 11:55:20;;;;;;;11.68;8.77;;;34.40;68.40;;;;;;5040674;28;20040;-67
2021/07/29 11:57:46;;;;;;;9.15;7.90;;;34.70;91.50;;;;;;5030565;28;20136;-67
2021/07/29 12:00:25;;;;;;;8.88;7.20;;;34.60;63.60;;;;;;5025854;28;20145;-67
2021/07/29 12:02:51;;;;;;;8.48;7.57;;;;;;;;;;5024060;28;20072;-67
2021/07/29 12:05:17;;;;;;;9.43;7.60;;;36.20;89.00;;;;;;5034134;28;20449;-62
2021/07/29 12:07:43;;;;;;;9.35;8.13;;;36.30;58.50;;;;;;5039558;28;20119;-68
2021/07/29 12:10:09;;;;;;;10.45;8.15;;;36.60;56.50;;;;;;5032371;28;20091;-68
2021/07/29 12:12:36;;;;;;;8.85;7.63;;;37.40;55.40;;;;;;5028955;28;20076;-68
2021/07/29 12:15:02;;;;;;;8.38;7.50;;;38.40;52.80;;;;;;5026410;28;20037;-67
2021/07/29 12:17:28;;;;;;;11.40;8.00;;;38.30;52.40;;;;;;5039627;28;20083;-68
2021/07/29 12:19:58;;;;;;;9.45;8.45;;;37.00;53.70;;;;;;5023781;28;20069;-68
2021/07/29 12:22:26;;;;;;;9.57;7.78;;;35.80;53.90;;;;;;5045176;28;20414;-68
2021/07/29 12:24:52;;;;;;;12.25;8.95;;;35.80;54.90;;;;;;5038809;28;20064;-68
2021/07/29 12:27:19;;;;;;;10.15;8.30;;;35.70;55.70;;;;;;5014502;28;20064;-68
2021/07/29 12:29:46;;;;;;;8.65;7.57;;;35.80;56.10;;;;;;5033618;28;20045;-69
2021/07/29 12:32:27;;;;;;;9.75;8.15;;;35.20;57.10;;;;;;5038477;28;20048;-69
2021/07/29 12:34:54;;;;;;;10.38;8.00;;;36.00;54.90;;;;;;5040845;28;20037;-68
2021/07/29 12:37:36;;;;;;;9.50;8.27;;;36.30;52.90;;;;;;5049604;28;20162;-68
2021/07/29 12:40:05;;;;;;;9.27;8.30;;;36.70;52.30;;;;;;5034583;28;20074;-68
2021/07/29 12:42:32;;;;;;;9.60;8.38;;;;;;;;;;5034798;28;20041;-69
2021/07/29 12:45:08;;;;;;;8.98;8.07;;;37.00;53.50;;;;;;5033444;28;20060;-69
2021/07/29 12:47:34;;;;;;;10.57;7.90;;;38.60;51.40;;;;;;5027657;28;20033;-69
2021/07/29 12:50:00;;;;;;;8.40;7.63;;;39.30;47.70;;;;;;5035924;28;20055;-68